Elec, Russia
Current Conditions -  °F | °C
As of 12:30 PM on Thursday 18 Dec 2014 (Local Time) from UUOO Reporting Station
Overcast Overcast  
Wind Chill: 29°   Ceiling: 1700
Heat Index: 36°   Visibility: 6mi
Dew Point: 30°   Wind: 9mph
Humidity: 81%   Direction: 310°NW
Pressure: 29.91"   Gusts: NA
Location:  52.63°N, 38.52°E
Report Text: UUOO 180930Z 31004MPS 9999 OVC017 02/M01 Q1013 NOSIG RMK 30290245
Loading
Personal Weather Stations






























Interactive Weather Map New forecast layout! Learn more

10-Day Weather Forecast

Advertisements
Track Severe Weather on mobile